createdAt,value
2019-03-28T00:00:31.333Z,75284.88
2019-03-28T00:03:00.797Z,75276.16
2019-03-28T00:05:49.626Z,75277.50
2019-03-28T00:08:19.092Z,75276.28
2019-03-28T00:10:48.566Z,75267.34
2019-03-28T00:13:18.062Z,75264.77
2019-03-28T00:15:47.629Z,75261.42
2019-03-28T00:18:17.094Z,75260.78
2019-03-28T00:20:46.648Z,75253.95
2019-03-28T00:23:20.648Z,75248.73
2019-03-28T00:25:50.113Z,75244.41
2019-03-28T00:28:19.616Z,75239.28
2019-03-28T00:30:49.214Z,75243.05
2019-03-28T00:33:18.596Z,75237.52
2019-03-28T00:35:48.088Z,75230.39
2019-03-28T00:38:17.486Z,75224.58
2019-03-28T00:40:46.948Z,75220.64
2019-03-28T00:43:16.429Z,75219.00
2019-03-28T00:45:45.915Z,75216.47
2019-03-28T00:48:15.406Z,75210.03
2019-03-28T00:50:44.873Z,75206.94
2019-03-28T00:53:14.339Z,75203.42
2019-03-28T00:55:43.834Z,75203.84
2019-03-28T00:58:13.302Z,75202.81
2019-03-28T01:00:42.780Z,75203.87
2019-03-28T01:03:12.287Z,75205.06
2019-03-28T01:05:42.243Z,75205.03
2019-03-28T01:08:12.208Z,75200.86
2019-03-28T01:10:43.621Z,75202.55
2019-03-28T01:13:13.093Z,75197.34
2019-03-28T01:15:42.661Z,75195.99
2019-03-28T01:18:12.148Z,75191.34
2019-03-28T01:20:41.567Z,75182.11
2019-03-28T01:23:10.959Z,75168.62
2019-03-28T01:25:40.300Z,75161.86
2019-03-28T01:28:09.721Z,75154.09
2019-03-28T01:30:39.017Z,75150.38
2019-03-28T01:33:08.341Z,75150.67
2019-03-28T01:35:37.836Z,75151.83
2019-03-28T01:38:07.029Z,75153.66
2019-03-28T01:40:36.353Z,75155.38
2019-03-28T01:43:05.706Z,75156.38
2019-03-28T01:45:34.894Z,75159.98
2019-03-28T01:48:04.222Z,75168.09
2019-03-28T01:50:33.581Z,75170.02
2019-03-28T01:53:03.107Z,75173.68
2019-03-28T01:55:32.672Z,75177.14
2019-03-28T01:58:02.249Z,75185.25
2019-03-28T02:00:32.572Z,75189.81
2019-03-28T02:03:01.894Z,75195.70
2019-03-28T02:05:31.196Z,75196.31
2019-03-28T02:08:02.777Z,75200.55
2019-03-28T02:10:31.697Z,75200.70
2019-03-28T02:13:01.202Z,75201.12
2019-03-28T02:15:30.662Z,75200.03
2019-03-28T02:18:00.155Z,75196.16
2019-03-28T02:20:29.680Z,75190.13
2019-03-28T02:22:59.579Z,75188.47
2019-03-28T02:25:29.065Z,75193.07
2019-03-28T02:27:58.590Z,75186.12
2019-03-28T02:30:32.906Z,75185.22
2019-03-28T02:33:02.389Z,75187.02
2019-03-28T02:35:31.866Z,75184.03
2019-03-28T02:38:01.359Z,75186.94
2019-03-28T02:40:30.834Z,75186.85
2019-03-28T02:43:00.343Z,75185.85
2019-03-28T02:45:30.069Z,75191.06
2019-03-28T02:47:59.757Z,75194.52
2019-03-28T02:50:29.243Z,75193.23
2019-03-28T02:52:58.713Z,75191.25
2019-03-28T02:55:28.184Z,75193.91
2019-03-28T02:57:57.732Z,75183.52
2019-03-28T03:00:27.373Z,75175.27
2019-03-28T03:02:57.106Z,75182.20
2019-03-28T03:05:26.574Z,75184.15
2019-03-28T03:07:56.045Z,75179.05
2019-03-28T03:10:25.513Z,75174.66
2019-03-28T03:12:55.028Z,75176.23
2019-03-28T03:15:24.498Z,75180.66
2019-03-28T03:17:53.985Z,75181.42
2019-03-28T03:20:26.486Z,75181.69
2019-03-28T03:22:55.994Z,75181.60
2019-03-28T03:25:25.464Z,75184.64
2019-03-28T03:27:58.470Z,75183.92
2019-03-28T03:30:45.529Z,75188.78
2019-03-28T03:33:15.028Z,75194.39
2019-03-28T03:35:44.489Z,75201.27
2019-03-28T03:38:14.054Z,75200.44
2019-03-28T03:40:43.550Z,75203.30
2019-03-28T03:43:13.019Z,75201.23
2019-03-28T03:45:42.641Z,75192.63
2019-03-28T03:48:12.291Z,75198.22
2019-03-28T03:50:41.895Z,75200.75
2019-03-28T03:53:11.376Z,75204.41
2019-03-28T03:55:40.903Z,75198.38
2019-03-28T03:58:16.164Z,75194.61
2019-03-28T04:00:43.418Z,75197.45
2019-03-28T04:03:12.935Z,75191.41
2019-03-28T04:05:42.402Z,75191.17
2019-03-28T04:08:11.877Z,75187.23
2019-03-28T04:10:41.378Z,75187.97
2019-03-28T04:13:11.092Z,75186.75
2019-03-28T04:15:40.714Z,75190.09
2019-03-28T04:18:10.229Z,75190.61
2019-03-28T04:20:39.690Z,75196.82
2019-03-28T04:23:09.159Z,75202.91
2019-03-28T04:25:39.773Z,75205.80
2019-03-28T04:28:09.517Z,75207.40
2019-03-28T04:30:38.989Z,75210.28
2019-03-28T04:33:08.496Z,75215.64
2019-03-28T04:35:39.507Z,75217.59
2019-03-28T04:38:10.170Z,75211.20
2019-03-28T04:40:39.653Z,75213.72
2019-03-28T04:43:09.118Z,75213.03
2019-03-28T04:45:38.613Z,75215.75
2019-03-28T04:48:08.083Z,75211.63
2019-03-28T04:50:37.544Z,75204.16
2019-03-28T04:53:07.109Z,75204.16
2019-03-28T04:55:36.594Z,75216.79
2019-03-28T04:58:06.061Z,75213.43
2019-03-28T05:00:35.590Z,75216.09
2019-03-28T05:03:05.062Z,75220.92
2019-03-28T05:05:34.536Z,75218.05
2019-03-28T05:08:04.024Z,75220.45
2019-03-28T05:10:33.502Z,75229.72
2019-03-28T05:13:02.981Z,75230.01
2019-03-28T05:15:32.481Z,75240.29
2019-03-28T05:18:01.968Z,75251.25
2019-03-28T05:20:31.440Z,75254.63
2019-03-28T05:23:00.935Z,75251.94
2019-03-28T05:25:30.399Z,75255.55
2019-03-28T05:27:59.855Z,75258.75
2019-03-28T05:30:29.656Z,75263.06
2019-03-28T05:32:59.127Z,75268.23
2019-03-28T05:35:28.609Z,75274.94
2019-03-28T05:37:58.082Z,75278.78
2019-03-28T05:40:27.544Z,75287.31
2019-03-28T05:42:57.032Z,75294.97
2019-03-28T05:45:47.603Z,75302.45
2019-03-28T05:48:17.190Z,75309.48
2019-03-28T05:50:46.648Z,75315.53
2019-03-28T05:53:16.144Z,75321.11
2019-03-28T05:55:45.602Z,75321.70
2019-03-28T05:58:15.111Z,75337.00
2019-03-28T06:00:44.714Z,75355.05
2019-03-28T06:03:14.279Z,75368.88
2019-03-28T06:05:43.839Z,75385.24
2019-03-28T06:08:13.306Z,75396.90
2019-03-28T06:10:42.777Z,75410.31
2019-03-28T06:13:12.297Z,75419.69
2019-03-28T06:15:41.767Z,75429.60
2019-03-28T06:18:11.240Z,75437.03
2019-03-28T06:20:40.740Z,75451.68
2019-03-28T06:23:10.218Z,75468.41
2019-03-28T06:25:41.005Z,75473.27
2019-03-28T06:28:10.559Z,75477.81
2019-03-28T06:30:40.056Z,75488.19
2019-03-28T06:33:09.592Z,75490.73
2019-03-28T06:35:39.113Z,75499.89
2019-03-28T06:38:08.585Z,75500.66
2019-03-28T06:40:38.047Z,75497.70
2019-03-28T06:43:07.560Z,75498.95
2019-03-28T06:45:37.044Z,75507.70
2019-03-28T06:48:06.514Z,75530.63
2019-03-28T06:50:36.030Z,75531.98
2019-03-28T06:53:05.465Z,75528.90
2019-03-28T06:55:36.905Z,75532.20
2019-03-28T06:58:06.167Z,75541.37
2019-03-28T07:00:35.738Z,75557.12
2019-03-28T07:03:05.206Z,75577.50
2019-03-28T07:05:34.739Z,75602.66
2019-03-28T07:08:04.177Z,75628.59
2019-03-28T07:10:33.701Z,75631.16
2019-03-28T07:13:03.333Z,75629.55
2019-03-28T07:15:32.837Z,75636.40
2019-03-28T07:18:02.316Z,75640.00
2019-03-28T07:20:31.825Z,75655.38
2019-03-28T07:23:01.259Z,75668.81
2019-03-28T07:25:30.922Z,75687.32
2019-03-28T07:28:00.312Z,75698.41
2019-03-28T07:30:29.824Z,75706.89
2019-03-28T07:32:59.278Z,75725.58
2019-03-28T07:35:28.755Z,75744.21
2019-03-28T07:37:58.256Z,75758.66
2019-03-28T07:40:27.782Z,75772.42
2019-03-28T07:42:57.216Z,75786.45
2019-03-28T07:45:27.526Z,75797.00
2019-03-28T07:47:57.197Z,75814.66
2019-03-28T07:50:26.627Z,75833.39
2019-03-28T07:52:56.083Z,75852.53
2019-03-28T07:55:25.580Z,75859.88
2019-03-28T07:57:55.072Z,75873.41
2019-03-28T08:00:24.535Z,75887.41
2019-03-28T08:02:54.618Z,75909.69
2019-03-28T08:05:24.326Z,75927.02
2019-03-28T08:07:53.780Z,75940.43
2019-03-28T08:10:23.891Z,75953.22
2019-03-28T08:12:53.369Z,75960.55
2019-03-28T08:15:22.849Z,75979.08
2019-03-28T08:17:52.288Z,75982.14
2019-03-28T08:20:21.718Z,75999.16
2019-03-28T08:22:51.239Z,76004.84
2019-03-28T08:25:20.702Z,76005.94
2019-03-28T08:27:50.213Z,75990.00
2019-03-28T08:30:35.600Z,76005.33
2019-03-28T08:33:06.473Z,76025.70
2019-03-28T08:35:37.136Z,76047.57
2019-03-28T08:38:09.947Z,76064.38
2019-03-28T08:40:40.535Z,76073.53
2019-03-28T08:43:10.008Z,76082.61
2019-03-28T08:45:39.530Z,76071.53
2019-03-28T08:48:09.021Z,76081.73
2019-03-28T08:50:38.486Z,76086.41
2019-03-28T08:53:08.003Z,76102.06
2019-03-28T08:55:37.515Z,76123.26
2019-03-28T08:58:07.120Z,76145.08
2019-03-28T09:03:23.719Z,76160.89
2019-03-28T09:05:53.243Z,76154.44
2019-03-28T09:08:22.721Z,76176.06
2019-03-28T09:10:52.194Z,76162.70
2019-03-28T09:16:09.421Z,76123.16
2019-03-28T09:21:25.938Z,76132.84
2019-03-28T09:23:55.449Z,76138.69
2019-03-28T09:26:24.861Z,76152.44
2019-03-28T09:28:54.336Z,76158.47
2019-03-28T09:31:23.831Z,76174.36
2019-03-28T09:33:53.301Z,76201.09
2019-03-28T09:36:22.809Z,76242.06
2019-03-28T09:38:52.290Z,76281.48
2019-03-28T09:41:21.764Z,76297.92
2019-03-28T09:43:55.524Z,76301.19
2019-03-28T09:46:22.465Z,76284.31
2019-03-28T09:48:51.948Z,76289.84
2019-03-28T09:51:21.435Z,76305.06
2019-03-28T09:53:50.920Z,76311.94
2019-03-28T09:56:20.405Z,76304.80
2019-03-28T09:58:49.914Z,76267.13
2019-03-28T10:01:19.390Z,76265.61
2019-03-28T10:03:48.862Z,76289.39
2019-03-28T10:06:18.363Z,76329.27
2019-03-28T10:08:48.014Z,76336.95
2019-03-28T10:11:17.542Z,76339.19
2019-03-28T10:13:47.046Z,76359.39
2019-03-28T10:16:16.509Z,76385.64
2019-03-28T10:18:46.889Z,76425.73
2019-03-28T10:21:16.684Z,76447.15
2019-03-28T10:23:46.166Z,76461.03
2019-03-28T10:26:15.619Z,76479.68
2019-03-28T10:28:45.137Z,76477.70
2019-03-28T10:31:16.666Z,76476.93
2019-03-28T10:33:46.392Z,76484.77
2019-03-28T10:36:15.974Z,76490.91
2019-03-28T10:38:45.452Z,76510.91
2019-03-28T10:41:14.929Z,76507.12
2019-03-28T10:43:44.345Z,76521.55
2019-03-28T10:46:13.826Z,76525.97
2019-03-28T10:48:43.280Z,76509.64
2019-03-28T10:51:12.804Z,76491.08
2019-03-28T10:53:42.287Z,76502.88
2019-03-28T10:56:21.523Z,76513.20
2019-03-28T10:58:43.595Z,76512.20
2019-03-28T11:01:16.426Z,76518.25
2019-03-28T11:03:44.295Z,76523.20
2019-03-28T11:06:13.853Z,76528.59
2019-03-28T11:08:43.328Z,76554.11
2019-03-28T11:11:12.819Z,76577.77
2019-03-28T11:13:42.495Z,76581.26
2019-03-28T11:16:14.915Z,76584.98
2019-03-28T11:18:43.245Z,76569.52
2019-03-28T11:21:12.735Z,76550.61
2019-03-28T11:23:42.182Z,76567.37
2019-03-28T11:26:11.888Z,76583.92
2019-03-28T11:28:42.247Z,76594.80
2019-03-28T11:31:11.823Z,76561.95
2019-03-28T11:33:41.340Z,76506.34
2019-03-28T11:36:10.808Z,76521.48
2019-03-28T11:38:40.285Z,76518.77
2019-03-28T11:41:09.781Z,76536.56
2019-03-28T11:43:39.534Z,76563.11
2019-03-28T11:46:21.774Z,76600.69
2019-03-28T11:48:51.242Z,76615.06
2019-03-28T11:51:20.704Z,76593.89
2019-03-28T11:53:50.212Z,76583.07
2019-03-28T11:56:19.687Z,76562.70
2019-03-28T11:58:49.159Z,76540.58
2019-03-28T12:01:18.664Z,76564.78
2019-03-28T12:03:48.172Z,76589.75
2019-03-28T12:06:17.634Z,76582.83
2019-03-28T12:08:47.243Z,76595.21
2019-03-28T12:11:16.713Z,76628.43
2019-03-28T12:13:46.180Z,76670.63
2019-03-28T12:16:15.780Z,76704.45
2019-03-28T12:18:45.247Z,76745.05
2019-03-28T12:21:14.795Z,76761.09
2019-03-28T12:23:44.306Z,76843.92
2019-03-28T12:26:13.802Z,76979.08
2019-03-28T12:28:43.275Z,77228.83
2019-03-28T12:31:12.777Z,77316.89
2019-03-28T12:33:42.364Z,77244.16
2019-03-28T12:36:11.936Z,77150.43
2019-03-28T12:38:41.441Z,77172.83
2019-03-28T12:41:10.910Z,77224.78
2019-03-28T12:43:40.392Z,77198.48
2019-03-28T12:46:09.885Z,77168.76
2019-03-28T12:48:39.353Z,77102.47
2019-03-28T12:51:08.841Z,77065.04
2019-03-28T12:53:38.338Z,77004.28
2019-03-28T12:56:07.805Z,76976.95
2019-03-28T12:58:37.220Z,76958.16
2019-03-28T13:01:06.694Z,76959.46
2019-03-28T13:03:45.434Z,77087.34
2019-03-28T13:06:07.393Z,77525.38
2019-03-28T13:08:36.876Z,77706.66
2019-03-28T13:11:06.338Z,77647.95
2019-03-28T13:13:35.842Z,77535.05
2019-03-28T13:16:05.589Z,77498.08
2019-03-28T13:18:36.164Z,77779.00
2019-03-28T13:21:13.523Z,78203.27
2019-03-28T13:23:37.061Z,78238.16
2019-03-28T13:26:06.529Z,78126.84
2019-03-28T13:28:36.098Z,77933.45
2019-03-28T13:31:05.581Z,77783.02
2019-03-28T13:33:35.058Z,77797.25
2019-03-28T13:36:04.557Z,77897.22
2019-03-28T13:38:34.180Z,77950.63
2019-03-28T13:41:03.641Z,77880.34
2019-03-28T13:43:34.110Z,78017.09
2019-03-28T13:46:03.581Z,77863.79
2019-03-28T13:48:33.060Z,77675.96
2019-03-28T13:51:02.546Z,77456.27
2019-03-28T13:53:39.321Z,77296.63
2019-03-28T13:56:03.298Z,77258.97
2019-03-28T13:58:32.796Z,77188.03
2019-03-28T14:01:02.269Z,77116.78
2019-03-28T14:03:31.794Z,77081.25
2019-03-28T14:06:01.307Z,77087.91
2019-03-28T14:08:30.776Z,77379.05
2019-03-28T14:11:00.376Z,77728.97
2019-03-28T14:13:29.855Z,77948.23
2019-03-28T14:15:59.428Z,77816.97
2019-03-28T14:18:30.806Z,77614.00
2019-03-28T14:21:00.310Z,77519.30
2019-03-28T14:23:29.778Z,77471.53
2019-03-28T14:25:59.254Z,77527.97
2019-03-28T14:28:28.758Z,77685.55
2019-03-28T14:31:00.763Z,77800.70
2019-03-28T14:33:29.431Z,78054.47
2019-03-28T14:35:58.941Z,78294.07
2019-03-28T14:38:28.424Z,78430.24
2019-03-28T14:40:58.446Z,78400.60
2019-03-28T14:43:28.079Z,78172.41
2019-03-28T14:45:57.545Z,78103.55
2019-03-28T14:48:27.112Z,78091.05
2019-03-28T14:50:56.773Z,78229.58
2019-03-28T14:53:26.367Z,78171.36
2019-03-28T14:55:55.941Z,77916.64
2019-03-28T14:58:25.453Z,77865.13
2019-03-28T15:00:55.241Z,77936.83
2019-03-28T15:03:26.692Z,77946.98
2019-03-28T15:05:55.950Z,77947.81
2019-03-28T15:08:25.429Z,78044.91
2019-03-28T15:10:54.910Z,78142.70
2019-03-28T15:13:24.403Z,78201.20
2019-03-28T15:15:53.892Z,78209.42
2019-03-28T15:18:23.412Z,78039.83
2019-03-28T15:20:52.938Z,77912.78
2019-03-28T15:23:22.489Z,77843.88
2019-03-28T15:25:51.968Z,77871.13
2019-03-28T15:28:21.469Z,77976.61
2019-03-28T15:30:50.942Z,78097.63
2019-03-28T15:33:20.410Z,78155.83
2019-03-28T15:35:49.906Z,78056.28
2019-03-28T15:38:19.379Z,77889.73
2019-03-28T15:40:48.899Z,77717.85
2019-03-28T15:43:18.398Z,77550.14
2019-03-28T15:45:47.865Z,77390.31
2019-03-28T15:48:17.381Z,77314.85
2019-03-28T15:50:46.866Z,77227.45
2019-03-28T15:53:16.357Z,77180.19
2019-03-28T15:55:45.848Z,77110.38
2019-03-28T15:58:23.105Z,77062.17
2019-03-28T16:00:46.544Z,77037.86
2019-03-28T16:03:16.051Z,77016.61
2019-03-28T16:06:04.895Z,76991.54
2019-03-28T16:08:34.395Z,76966.84
2019-03-28T16:11:03.864Z,76938.55
2019-03-28T16:13:33.278Z,76915.22
2019-03-28T16:16:02.778Z,76881.94
2019-03-28T16:18:32.263Z,76858.24
2019-03-28T16:21:01.770Z,76840.77
2019-03-28T16:23:31.344Z,76815.11
2019-03-28T16:26:00.855Z,76797.80
2019-03-28T16:28:30.346Z,76770.22
2019-03-28T16:31:00.137Z,76744.67
2019-03-28T16:33:29.953Z,76709.98
2019-03-28T16:35:59.494Z,76686.69
2019-03-28T16:38:29.012Z,76663.48
2019-03-28T16:40:58.543Z,76660.00
2019-03-28T16:43:28.281Z,76660.83
2019-03-28T16:45:57.891Z,76650.14
2019-03-28T16:48:47.096Z,76633.98
2019-03-28T16:51:17.633Z,76629.97
2019-03-28T16:53:47.577Z,76622.58
2019-03-28T16:56:17.067Z,76620.97
2019-03-28T16:58:46.563Z,76611.48
2019-03-28T17:01:16.041Z,76595.32
2019-03-28T17:03:45.874Z,76593.22
2019-03-28T17:06:15.401Z,76588.44
2019-03-28T17:08:45.570Z,76583.83
2019-03-28T17:11:15.059Z,76574.12
2019-03-28T17:13:46.282Z,76570.86
2019-03-28T17:16:16.729Z,76559.11
2019-03-28T17:18:46.464Z,76554.89
2019-03-28T17:21:15.982Z,76545.55
2019-03-28T17:23:45.448Z,76523.80
2019-03-28T17:26:14.922Z,76523.48
2019-03-28T17:28:44.529Z,76524.73
2019-03-28T17:31:14.005Z,76518.81
2019-03-28T17:33:43.448Z,76519.56
2019-03-28T17:36:13.170Z,76515.55
2019-03-28T17:38:42.703Z,76508.59
2019-03-28T17:41:12.219Z,76510.44
2019-03-28T17:43:42.093Z,76498.72
2019-03-28T17:46:12.515Z,76493.84
2019-03-28T17:48:42.302Z,76486.91
2019-03-28T17:51:11.879Z,76480.93
2019-03-28T17:53:41.645Z,76483.80
2019-03-28T17:56:11.240Z,76483.03
2019-03-28T17:58:40.743Z,76481.13
2019-03-28T18:01:10.441Z,76480.22
2019-03-28T18:03:39.895Z,76481.28
2019-03-28T18:06:09.389Z,76484.23
2019-03-28T18:08:38.881Z,76478.51
2019-03-28T18:11:08.349Z,76477.57
2019-03-28T18:13:37.867Z,76477.73
2019-03-28T18:16:07.681Z,76475.86
2019-03-28T18:18:37.405Z,76471.27
2019-03-28T18:21:06.899Z,76461.11
2019-03-28T18:23:36.363Z,76454.34
2019-03-28T18:26:05.849Z,76450.72
2019-03-28T18:28:35.791Z,76452.63
2019-03-28T18:31:05.456Z,76448.45
2019-03-28T18:33:35.132Z,76442.38
2019-03-28T18:36:04.650Z,76439.31
2019-03-28T18:38:34.118Z,76443.87
2019-03-28T18:41:03.895Z,76437.81
2019-03-28T18:43:33.362Z,76437.20
2019-03-28T18:46:02.860Z,76434.97
2019-03-28T18:48:36.383Z,76431.52
2019-03-28T18:51:03.576Z,76425.59
2019-03-28T18:53:33.033Z,76422.33
2019-03-28T18:56:02.536Z,76418.80
2019-03-28T18:58:32.048Z,76412.98
2019-03-28T19:01:01.499Z,76411.27
2019-03-28T19:03:31.011Z,76406.94
2019-03-28T19:06:00.509Z,76407.33
2019-03-28T19:08:29.991Z,76405.52
2019-03-28T19:10:59.463Z,76400.08
2019-03-28T19:13:28.995Z,76392.81
2019-03-28T19:15:58.479Z,76392.66
2019-03-28T19:18:27.977Z,76399.34
2019-03-28T19:20:58.039Z,76403.29
2019-03-28T19:23:28.324Z,76405.77
2019-03-28T19:25:57.796Z,76407.48
2019-03-28T19:28:36.691Z,76406.42
2019-03-28T19:31:06.750Z,76405.29
2019-03-28T19:33:38.226Z,76407.00
2019-03-28T19:36:10.187Z,76406.23
2019-03-28T19:38:39.742Z,76396.69
2019-03-28T19:41:09.239Z,76392.55
2019-03-28T19:43:39.047Z,76385.05
2019-03-28T19:46:08.628Z,76380.72
2019-03-28T19:48:38.154Z,76370.56
2019-03-28T19:51:07.930Z,76369.12
2019-03-28T19:53:37.663Z,76367.49
2019-03-28T19:56:07.161Z,76372.02
2019-03-28T19:58:36.652Z,76374.57
2019-03-28T20:01:06.126Z,76374.13
2019-03-28T20:03:35.675Z,76371.90
2019-03-28T20:06:05.179Z,76365.49
2019-03-28T20:08:34.660Z,76359.97
2019-03-28T20:11:04.195Z,76357.80
2019-03-28T20:13:33.710Z,76353.86
2019-03-28T20:16:03.191Z,76350.84
2019-03-28T20:18:32.731Z,76357.16
2019-03-28T20:21:02.205Z,76350.81
2019-03-28T20:23:31.693Z,76346.49
2019-03-28T20:26:01.201Z,76340.47
2019-03-28T20:28:30.728Z,76333.46
2019-03-28T20:31:00.206Z,76327.26
2019-03-28T20:33:29.719Z,76320.19
2019-03-28T20:36:18.714Z,76316.75
2019-03-28T20:38:30.633Z,76309.19
2019-03-28T20:41:00.271Z,76302.58
2019-03-28T20:43:29.818Z,76298.08
2019-03-28T20:45:59.294Z,76288.31
2019-03-28T20:48:28.819Z,76278.82
2019-03-28T20:50:58.291Z,76280.19
2019-03-28T20:53:27.757Z,76279.09
2019-03-28T20:55:57.253Z,76278.05
2019-03-28T20:58:26.845Z,76274.98
2019-03-28T21:00:56.523Z,76260.16
2019-03-28T21:03:26.119Z,76255.05
2019-03-28T21:05:55.685Z,76256.64
2019-03-28T21:08:25.166Z,76251.95
2019-03-28T21:10:54.686Z,76249.08
2019-03-28T21:13:24.175Z,76246.59
2019-03-28T21:15:53.654Z,76247.11
2019-03-28T21:18:23.163Z,76250.91
2019-03-28T21:20:52.636Z,76248.75
2019-03-28T21:23:22.131Z,76243.27
2019-03-28T21:25:51.711Z,76246.39
2019-03-28T21:28:21.189Z,76243.42
2019-03-28T21:30:50.683Z,76234.70
2019-03-28T21:33:20.188Z,76231.28
2019-03-28T21:35:49.692Z,76236.61
2019-03-28T21:38:19.163Z,76235.52
2019-03-28T21:40:48.663Z,76228.57
2019-03-28T21:43:18.245Z,76224.81
2019-03-28T21:45:47.718Z,76219.91
2019-03-28T21:48:17.219Z,76218.88
2019-03-28T21:50:46.714Z,76217.65
2019-03-28T21:53:16.285Z,76219.66
2019-03-28T21:55:54.970Z,76222.20
2019-03-28T21:58:16.987Z,76219.69
2019-03-28T22:00:46.468Z,76221.95
2019-03-28T22:03:16.892Z,76213.48
2019-03-28T22:05:46.580Z,76215.94
2019-03-28T22:08:16.074Z,76216.17
2019-03-28T22:10:45.571Z,76211.45
2019-03-28T22:13:15.036Z,76204.50
2019-03-28T22:15:44.519Z,76192.05
2019-03-28T22:18:14.034Z,76187.47
2019-03-28T22:20:43.846Z,76187.88
2019-03-28T22:23:14.074Z,76190.14
2019-03-28T22:25:43.585Z,76183.84
2019-03-28T22:28:13.047Z,76178.39
2019-03-28T22:30:42.530Z,76167.98
2019-03-28T22:33:12.074Z,76165.52
2019-03-28T22:35:41.559Z,76158.86
2019-03-28T22:38:11.037Z,76158.66
2019-03-28T22:40:43.682Z,76154.95
2019-03-28T22:43:11.851Z,76149.82
2019-03-28T22:45:41.422Z,76140.10
2019-03-28T22:48:12.398Z,76134.72
2019-03-28T22:50:42.256Z,76135.98
2019-03-28T22:53:11.728Z,76138.81
2019-03-28T22:55:41.294Z,76138.08
2019-03-28T22:58:10.804Z,76135.33
2019-03-28T23:00:47.694Z,76138.14
2019-03-28T23:03:17.774Z,76144.21
2019-03-28T23:05:47.232Z,76140.71
2019-03-28T23:08:16.853Z,76130.84
2019-03-28T23:10:46.322Z,76129.65
2019-03-28T23:13:15.814Z,76129.84
2019-03-28T23:15:45.328Z,76139.45
2019-03-28T23:18:14.797Z,76139.30
2019-03-28T23:20:44.278Z,76139.62
2019-03-28T23:23:13.792Z,76137.91
2019-03-28T23:25:43.253Z,76135.63
2019-03-28T23:28:12.741Z,76137.11
2019-03-28T23:30:42.250Z,76142.66
2019-03-28T23:33:11.776Z,76140.36
2019-03-28T23:35:41.263Z,76143.78
2019-03-28T23:38:10.753Z,76143.95
2019-03-28T23:40:40.217Z,76148.85
2019-03-28T23:43:09.932Z,76148.95
2019-03-28T23:45:39.665Z,76152.76
2019-03-28T23:48:09.187Z,76150.79
2019-03-28T23:50:38.681Z,76153.38
2019-03-28T23:53:08.801Z,76146.41
2019-03-28T23:55:38.612Z,76145.95
2019-03-28T23:58:08.105Z,76140.06
